Weather at Alexander Ranch Airport

Public forecast

Using degrees Fahrenheit for public forecast. Weather courtesy of forecast.io.

Closest aviation weather report (METAR) to Alexander Ranch Airport

Closest report is Lago Vista Texas Rusty Allen Airport, 15.6 nm (28.9 km) NNE. Retrieved 2022/01/17 03:35 UTC (3 minutes ago):

KRYW 170335Z AUTO 17003KT 10SM CLR 07/M08 A3006 RMK AO2 T00671079

Closest aviation forecast (TAF) to Alexander Ranch Airport

Closest forecast is Austin Bergstrom International Airport, 24.3 nm (45.1 km) E. Retrieved 2022-01-17 00:22 UTC (3 hours ago):

TAF KAUS 162320Z 1700/1806 VRB03KT P6SM SKC FM172000 13005KT P6SM SKC